Hlavní strana
METAR-TAF:

METAR-TAF

Letiště :

McGhee Tyson Airport

Knoxville, Tennessee, Spojené státy americké

zeměpisná šířka: 35-49-05N, zeměpisná délka: 083-59-09W, výška: 299 m

Aktuální stav počasí

Zpráva byla vytvořena před 37 minutami, v 02:53 UTC
Severoseverovýchodní vítr 4 kt
Teplota 10°C
Vlhkost vzduchu 66%
Tlak 1028 hPa
Viditelnost: 16.1 km
Jasno

METAR: KTYS 190253Z 02004KT 10SM CLR 10/04 A3036 RMK AO2 SLP278 T01000044 50002

Čas: 23:30 (03:30 UTC)

Předpověď počasí

Zpráva byla vytvořena před 4 hodinami a 5 minutami, v 23:25 UTC
Předpověď platná od 19 v 00 UTC do 19 v 24 UTC
Severoseverovýchodní vítr 5 kt
Viditelnost: 10 km
Polojasno ve výšce 25000 ft
Od 19 v 1500 UTC
Jižní vítr 6 kt
Viditelnost: 10 km
Polojasno ve výšce 15000 ft
Od 19 v 1800 UTC
Jihozápadní vítr 8 kt
Viditelnost: 10 km
Oblačno až skoro zataženo ve výšce 25000 ft

TAF: KTYS 182325Z 1900/1924 03005KT P6SM SCT250 FM191500 19006KT P6SM SCT150 FM191800 23008KT P6SM BKN250

Stav a předpovědi počasí z více než 4 000 letišť (zprávy METAR a TAF).

Červené a žluté tečky na mapě představují dostupné meteorologické stanice.

Když kurzor umístíte na tečku, zobrazí se název stanice.

Pak kliknutím zobrazíte stav a předpověď počasí.

Chcete-li změnit mapu, kliknutím na zelené tlačítko se znaménkem +mapu přiblížíte, kliknutím na zelené tlačítko se znaménkem – mapu oddálíte a kliknutím na zelené šipky přejdete na sousední mapy.


METAR-TAF: